This is the latest recevied weather packets stored in our database for station/object KD2ZLA. If no packets are shown the sender has not sent any weather packets the latest 1 day(s).
| Time | Temp. | Humidity | Pressure | Rain* | Wind** | Luminosity | Snow |
|---|---|---|---|---|---|---|---|
| 1778012629 | 20° C | 57% | 1002.4 hPa | 0 mm | 1.79 m/s, 328° | 113 W/m² | - |
| 1778012326 | 20° C | 56% | 1002.2 hPa | 0 mm | 4.02 m/s, 261° | 120 W/m² | - |
| 1778012023 | 20° C | 55% | 1002.2 hPa | 0 mm | 4.47 m/s, 305° | 147 W/m² | - |
| 1778011721 | 20.56° C | 55% | 1002.3 hPa | 0 mm | 4.92 m/s, 281° | 206 W/m² | - |
| 1778011418 | 20.56° C | 55% | 1002.3 hPa | 0 mm | 3.13 m/s, 274° | 300 W/m² | - |
| 1778011114 | 20.56° C | 55% | 1002.4 hPa | 0 mm | 4.02 m/s, 273° | 248 W/m² | - |
| 1778010811 | 20.56° C | 54% | 1002.3 hPa | 0 mm | 11.62 m/s, 308° | 235 W/m² | - |
| 1778010508 | 20.56° C | 55% | 1002.3 hPa | 0 mm | 7.6 m/s, 286° | 298 W/m² | - |
| 1778010205 | 20.56° C | 55% | 1002.2 hPa | 0 mm | 8.05 m/s, 246° | 533 W/m² | - |
| 1778009900 | 20° C | 56% | 1002.4 hPa | 0 mm | 4.47 m/s, 322° | 399 W/m² | - |
| 1778009598 | 20° C | 56% | 1002.3 hPa | 0 mm | 3.58 m/s, 285° | 286 W/m² | - |
| 1778009296 | 20° C | 55% | 1002.3 hPa | 0 mm | 2.68 m/s, 273° | 391 W/m² | - |
| 1778008994 | 20.56° C | 55% | 1002.4 hPa | 0 mm | 4.47 m/s, 299° | 432 W/m² | - |
| 1778008692 | 20° C | 56% | 1002.1 hPa | 0 mm | 4.47 m/s, 290° | 345 W/m² | - |
| 1778008390 | 20° C | 56% | 1002 hPa | 0 mm | 4.02 m/s, 282° | 177 W/m² | - |
| 1778008086 | 20° C | 56% | 1002.3 hPa | 0 mm | 4.47 m/s, 245° | 154 W/m² | - |
| 1778007782 | 20° C | 58% | 1002 hPa | 0 mm | 6.26 m/s, 310° | 198 W/m² | - |
| 1778007478 | 20° C | 62% | 1002.1 hPa | 0 mm | 1.79 m/s, 246° | 178 W/m² | - |
| 1778007174 | 20° C | 65% | 1002.3 hPa | 0 mm | 1.79 m/s, 279° | 216 W/m² | - |
| 1778006870 | 20° C | 65% | 1002 hPa | 0 mm | 3.58 m/s, 323° | 345 W/m² | - |
| 1778006568 | 20° C | 64% | 1002 hPa | 0 mm | 9.39 m/s, 231° | 260 W/m² | - |
| 1778006264 | 20° C | 66% | 1002 hPa | 0 mm | 5.81 m/s, 236° | 474 W/m² | - |
| 1778005962 | 20° C | 66% | 1001.9 hPa | 0 mm | 3.58 m/s, 250° | 364 W/m² | - |
| 1778005658 | 19.44° C | 68% | 1001.9 hPa | 0 mm | 5.36 m/s, 249° | 797 W/m² | - |
| 1778005355 | 18.89° C | 70% | 1001.8 hPa | 0 mm | 2.68 m/s, 245° | 486 W/m² | - |
* Rain latest hour (hover to see other rain measurements)
** Current wind speed in m/s (hover to see current wind gust speed)